createdAt,value
2019-06-26T00:01:23.617Z,13.35
2019-06-26T00:04:01.359Z,13.15
2019-06-26T00:06:35.267Z,13.10
2019-06-26T00:09:08.891Z,13.18
2019-06-26T00:11:46.113Z,13.83
2019-06-26T00:14:20.755Z,13.28
2019-06-26T00:17:03.834Z,13.30
2019-06-26T00:19:32.106Z,13.05
2019-06-26T00:22:06.711Z,12.88
2019-06-26T00:24:37.095Z,13.13
2019-06-26T00:27:16.420Z,11.30
2019-06-26T00:29:52.312Z,12.00
2019-06-26T00:32:25.034Z,12.50
2019-06-26T00:35:01.444Z,13.68
2019-06-26T00:37:31.378Z,13.30
2019-06-26T00:40:04.830Z,13.32
2019-06-26T00:42:37.771Z,14.20
2019-06-26T00:45:08.291Z,13.85
2019-06-26T00:47:40.898Z,14.68
2019-06-26T00:50:14.264Z,12.78
2019-06-26T00:52:52.320Z,14.23
2019-06-26T00:55:26.797Z,15.15
2019-06-26T00:57:58.082Z,14.43
2019-06-26T01:00:35.857Z,15.72
2019-06-26T01:03:05.841Z,17.00
2019-06-26T01:05:38.645Z,14.58
2019-06-26T01:08:08.854Z,14.23
2019-06-26T01:10:38.882Z,15.78
2019-06-26T01:13:13.769Z,27.52
2019-06-26T01:15:47.462Z,17.37
2019-06-26T01:18:18.816Z,16.07
2019-06-26T01:20:52.666Z,14.75
2019-06-26T01:23:22.599Z,14.30
2019-06-26T01:25:53.567Z,15.45
2019-06-26T01:28:28.093Z,14.85
2019-06-26T01:31:01.577Z,13.68
2019-06-26T01:33:32.635Z,13.55
2019-06-26T01:36:16.342Z,13.08
2019-06-26T01:38:41.784Z,12.82
2019-06-26T01:41:11.733Z,14.30
2019-06-26T01:43:42.719Z,14.73
2019-06-26T01:46:12.852Z,14.25
2019-06-26T01:48:42.698Z,14.00
2019-06-26T01:51:18.594Z,13.38
2019-06-26T01:53:52.846Z,15.90
2019-06-26T01:56:25.301Z,14.18
2019-06-26T01:58:59.062Z,14.10
2019-06-26T02:01:30.229Z,14.15
2019-06-26T02:04:04.807Z,15.30
2019-06-26T02:06:36.301Z,14.83
2019-06-26T02:09:07.468Z,13.85
2019-06-26T02:11:37.437Z,14.65
2019-06-26T02:14:09.648Z,13.30
2019-06-26T02:16:40.671Z,13.48
2019-06-26T02:19:14.897Z,14.80
2019-06-26T02:21:44.890Z,14.40
2019-06-26T02:24:16.408Z,14.43
2019-06-26T02:26:46.373Z,14.70
2019-06-26T02:29:26.555Z,14.83
2019-06-26T02:31:55.501Z,14.58
2019-06-26T02:34:25.007Z,15.93
2019-06-26T02:36:57.964Z,15.70
2019-06-26T02:39:36.291Z,15.83
2019-06-26T02:42:08.842Z,16.17
2019-06-26T02:44:52.768Z,15.72
2019-06-26T02:47:19.699Z,15.60
2019-06-26T02:49:45.979Z,15.43
2019-06-26T02:52:16.585Z,14.25
2019-06-26T02:54:47.870Z,15.15
2019-06-26T02:57:20.362Z,14.73
2019-06-26T02:59:50.096Z,14.80
2019-06-26T03:05:14.749Z,15.08
2019-06-26T03:07:49.251Z,14.63
2019-06-26T03:10:20.403Z,14.75
2019-06-26T03:12:50.323Z,15.20
2019-06-26T03:15:21.253Z,14.83
2019-06-26T03:17:56.021Z,15.55
2019-06-26T03:20:34.722Z,16.85
2019-06-26T03:23:15.757Z,17.70
2019-06-26T03:25:48.179Z,16.15
2019-06-26T03:28:18.619Z,16.62
2019-06-26T03:30:48.452Z,16.05
2019-06-26T03:33:18.482Z,16.62
2019-06-26T03:35:49.977Z,15.98
2019-06-26T03:38:27.651Z,15.98
2019-06-26T03:40:57.554Z,15.68
2019-06-26T03:43:28.552Z,14.93
2019-06-26T03:46:06.395Z,14.85
2019-06-26T03:48:37.829Z,17.30
2019-06-26T03:51:14.133Z,16.70
2019-06-26T03:53:50.523Z,16.80
2019-06-26T03:59:02.173Z,14.60
2019-06-26T04:01:35.776Z,14.15
2019-06-26T04:04:21.436Z,14.07
2019-06-26T04:06:46.228Z,14.18
2019-06-26T04:09:17.931Z,17.00
2019-06-26T04:11:49.513Z,14.60
2019-06-26T04:14:21.175Z,15.88
2019-06-26T04:16:53.635Z,16.15
2019-06-26T04:19:32.264Z,16.25
2019-06-26T04:22:05.758Z,17.35
2019-06-26T04:24:44.452Z,16.15
2019-06-26T04:27:14.515Z,16.30
2019-06-26T04:29:45.734Z,15.48
2019-06-26T04:32:20.544Z,16.93
2019-06-26T04:34:54.481Z,15.70
2019-06-26T04:37:23.291Z,16.32
2019-06-26T04:39:55.708Z,17.02
2019-06-26T04:42:28.402Z,16.23
2019-06-26T04:45:02.383Z,18.00
2019-06-26T04:47:37.130Z,15.28
2019-06-26T04:50:09.350Z,18.02
2019-06-26T04:52:42.643Z,18.52
2019-06-26T04:55:15.926Z,17.17
2019-06-26T04:57:46.462Z,16.80
2019-06-26T05:00:21.843Z,16.93
2019-06-26T05:02:51.751Z,15.60
2019-06-26T05:05:38.193Z,16.80
2019-06-26T05:07:58.074Z,18.62
2019-06-26T05:10:29.534Z,18.15
2019-06-26T05:13:06.317Z,14.95
2019-06-26T05:15:42.484Z,15.47
2019-06-26T05:18:21.210Z,15.30
2019-06-26T05:21:00.519Z,15.32
2019-06-26T05:23:37.164Z,15.63
2019-06-26T05:26:11.156Z,16.15
2019-06-26T05:28:46.938Z,21.10
2019-06-26T05:31:27.878Z,14.75
2019-06-26T05:34:21.753Z,19.98
2019-06-26T05:36:57.219Z,21.23
2019-06-26T05:39:36.018Z,20.50
2019-06-26T05:42:13.482Z,22.07
2019-06-26T05:44:49.557Z,23.90
2019-06-26T05:47:43.990Z,22.10
2019-06-26T05:50:18.290Z,20.62
2019-06-26T05:53:00.186Z,20.35
2019-06-26T05:55:24.806Z,18.75
2019-06-26T05:58:01.202Z,17.75
2019-06-26T06:03:34.839Z,16.60
2019-06-26T06:06:07.839Z,16.55
2019-06-26T06:08:37.850Z,15.50
2019-06-26T06:11:11.368Z,15.38
2019-06-26T06:13:52.317Z,15.63
2019-06-26T06:16:29.371Z,17.60
2019-06-26T06:19:03.952Z,16.48
2019-06-26T06:21:36.960Z,16.30
2019-06-26T06:24:12.997Z,14.60
2019-06-26T06:26:45.196Z,14.53
2019-06-26T06:29:16.026Z,15.30
2019-06-26T06:31:50.022Z,14.60
2019-06-26T06:34:20.357Z,16.23
2019-06-26T06:36:53.571Z,15.20
2019-06-26T06:39:23.504Z,15.10
2019-06-26T06:41:58.544Z,13.22
2019-06-26T06:44:33.577Z,13.88
2019-06-26T06:47:09.136Z,14.07
2019-06-26T06:49:40.424Z,14.05
2019-06-26T06:52:16.485Z,14.20
2019-06-26T06:54:50.628Z,14.83
2019-06-26T06:57:28.910Z,14.65
2019-06-26T07:00:01.773Z,14.85
2019-06-26T07:02:34.212Z,12.93
2019-06-26T07:05:04.433Z,13.83
2019-06-26T07:07:37.244Z,13.40
2019-06-26T07:10:14.222Z,13.98
2019-06-26T07:12:48.312Z,14.53
2019-06-26T07:15:25.693Z,14.25
2019-06-26T07:18:06.104Z,15.58
2019-06-26T07:20:44.466Z,15.32
2019-06-26T07:23:14.410Z,15.87
2019-06-26T07:25:58.381Z,16.65
2019-06-26T07:28:39.388Z,15.78
2019-06-26T07:31:12.760Z,16.23
2019-06-26T07:33:55.713Z,16.10
2019-06-26T07:36:37.767Z,15.80
2019-06-26T07:39:11.790Z,16.42
2019-06-26T07:41:41.832Z,14.87
2019-06-26T07:44:29.517Z,14.85
2019-06-26T07:47:02.776Z,15.20
2019-06-26T07:49:43.414Z,15.40
2019-06-26T07:52:13.785Z,15.18
2019-06-26T07:54:51.538Z,14.93
2019-06-26T07:57:29.020Z,13.98
2019-06-26T08:02:34.086Z,15.13
2019-06-26T08:05:10.023Z,14.35
2019-06-26T08:07:43.442Z,13.88
2019-06-26T08:10:18.151Z,12.20
2019-06-26T08:12:53.890Z,11.93
2019-06-26T08:15:27.062Z,11.97
2019-06-26T08:18:08.613Z,12.98
2019-06-26T08:21:07.496Z,11.65
2019-06-26T08:23:24.138Z,11.40
2019-06-26T08:26:01.885Z,11.08
2019-06-26T08:28:37.004Z,11.80
2019-06-26T08:31:11.091Z,11.05
2019-06-26T08:33:50.566Z,11.35
2019-06-26T08:36:20.736Z,10.13
2019-06-26T08:39:01.132Z,9.85
2019-06-26T08:41:40.795Z,10.48
2019-06-26T08:44:21.627Z,9.63
2019-06-26T08:47:01.273Z,8.30
2019-06-26T08:49:43.766Z,8.50
2019-06-26T08:52:16.136Z,8.85
2019-06-26T08:54:51.804Z,9.10
2019-06-26T08:57:26.065Z,9.23
2019-06-26T08:59:57.244Z,9.28
2019-06-26T09:05:10.666Z,9.43
2019-06-26T09:07:48.085Z,9.20
2019-06-26T09:12:53.806Z,8.53
2019-06-26T09:15:35.833Z,8.65
2019-06-26T09:18:08.856Z,8.90
2019-06-26T09:20:43.453Z,8.55
2019-06-26T09:23:39.581Z,9.00
2019-06-26T09:26:29.648Z,8.35
2019-06-26T09:29:02.448Z,7.72
2019-06-26T09:31:44.581Z,8.38
2019-06-26T09:34:19.067Z,8.05
2019-06-26T09:37:10.570Z,7.65
2019-06-26T09:39:41.677Z,8.00
2019-06-26T09:42:22.814Z,8.08
2019-06-26T09:45:02.750Z,7.50
2019-06-26T09:47:54.416Z,7.50
2019-06-26T09:50:39.780Z,7.58
2019-06-26T09:53:42.604Z,6.60
2019-06-26T09:56:14.180Z,7.20
2019-06-26T09:58:55.540Z,7.12
2019-06-26T10:01:28.279Z,6.58
2019-06-26T10:04:08.697Z,6.58
2019-06-26T10:06:46.027Z,7.67
2019-06-26T10:12:05.254Z,7.17
2019-06-26T10:14:58.140Z,7.53
2019-06-26T10:17:48.202Z,7.08
2019-06-26T10:20:25.068Z,6.72
2019-06-26T10:23:09.054Z,7.03
2019-06-26T10:26:05.919Z,7.65
2019-06-26T10:29:01.466Z,7.33
2019-06-26T10:31:44.217Z,6.95
2019-06-26T10:37:10.607Z,6.42
2019-06-26T10:39:45.310Z,6.97
2019-06-26T10:42:23.345Z,7.58
2019-06-26T10:45:19.078Z,7.17
2019-06-26T10:48:00.018Z,6.00
2019-06-26T10:50:58.827Z,6.80
2019-06-26T10:53:43.529Z,6.53
2019-06-26T10:56:40.324Z,6.70
2019-06-26T10:59:20.669Z,6.50
2019-06-26T11:02:10.205Z,6.42
2019-06-26T11:05:02.245Z,7.12
2019-06-26T11:10:26.976Z,6.90
2019-06-26T11:12:54.518Z,7.62
2019-06-26T11:15:38.117Z,7.30
2019-06-26T11:18:29.281Z,7.67
2019-06-26T11:24:06.773Z,8.95
2019-06-26T11:27:29.180Z,9.68
2019-06-26T11:29:41.278Z,9.33
2019-06-26T11:32:28.661Z,9.58
2019-06-26T11:35:05.629Z,8.13
2019-06-26T11:37:57.791Z,8.50
2019-06-26T11:40:35.310Z,8.35
2019-06-26T11:43:14.320Z,8.60
2019-06-26T11:46:01.693Z,7.83
2019-06-26T11:48:45.973Z,8.40
2019-06-26T11:51:21.435Z,8.65
2019-06-26T11:54:03.348Z,9.00
2019-06-26T11:56:55.295Z,8.35
2019-06-26T11:59:19.469Z,8.35
2019-06-26T12:02:15.345Z,8.08
2019-06-26T12:04:53.046Z,8.28
2019-06-26T12:07:35.513Z,7.75
2019-06-26T12:10:31.670Z,7.95
2019-06-26T12:13:08.061Z,7.58
2019-06-26T12:15:47.132Z,7.70
2019-06-26T12:18:52.544Z,7.47
2019-06-26T12:21:29.067Z,7.30
2019-06-26T12:24:08.679Z,7.75
2019-06-26T12:27:02.878Z,7.17
2019-06-26T12:29:41.053Z,6.95
2019-06-26T12:33:01.701Z,7.00
2019-06-26T12:35:37.988Z,7.12
2019-06-26T12:38:15.780Z,6.30
2019-06-26T12:40:57.207Z,6.28
2019-06-26T12:43:36.497Z,6.55
2019-06-26T12:49:02.683Z,6.55
2019-06-26T12:52:07.795Z,6.92
2019-06-26T12:55:01.860Z,6.65
2019-06-26T12:58:11.725Z,6.30
2019-06-26T13:03:31.906Z,6.33
2019-06-26T13:06:06.970Z,6.08
2019-06-26T13:09:40.844Z,6.22
2019-06-26T13:11:35.183Z,6.25
2019-06-26T13:14:24.748Z,6.22
2019-06-26T13:23:45.430Z,6.78
2019-06-26T13:33:02.844Z,5.63
2019-06-26T13:33:30.038Z,5.92
2019-06-26T13:35:32.873Z,5.90
2019-06-26T13:38:02.764Z,5.30
2019-06-26T13:40:32.676Z,5.80
2019-06-26T13:43:02.533Z,4.83
2019-06-26T13:46:07.418Z,4.70
2019-06-26T13:52:52.255Z,5.20
2019-06-26T13:55:48.400Z,4.17
2019-06-26T13:58:57.337Z,4.20
2019-06-26T14:09:34.901Z,3.95
2019-06-26T14:13:10.739Z,4.53
2019-06-26T14:13:25.307Z,4.45
2019-06-26T14:16:36.883Z,3.37
2019-06-26T14:20:06.869Z,3.80
2019-06-26T14:26:39.014Z,4.00
2019-06-26T14:33:55.098Z,3.90
2019-06-26T14:40:18.950Z,3.77
2019-06-26T14:47:25.580Z,3.42
2019-06-26T14:50:33.890Z,3.60
2019-06-26T15:00:44.699Z,3.50
2019-06-26T15:04:11.009Z,3.60
2019-06-26T15:07:45.296Z,3.55
2019-06-26T15:15:18.294Z,3.00
2019-06-26T15:18:48.231Z,3.15
2019-06-26T15:22:04.312Z,3.47
2019-06-26T15:25:13.405Z,3.22
2019-06-26T15:35:21.162Z,2.90
2019-06-26T15:41:55.531Z,3.00
2019-06-26T15:44:49.313Z,2.85
2019-06-26T15:48:00.151Z,2.90
2019-06-26T15:51:12.061Z,2.70
2019-06-26T15:54:48.267Z,2.60
2019-06-26T16:19:51.538Z,3.60
2019-06-26T16:23:31.798Z,3.87
2019-06-26T16:30:44.713Z,4.15
2019-06-26T16:36:46.582Z,4.72
2019-06-26T16:39:42.309Z,4.50
2019-06-26T16:53:43.164Z,4.80
2019-06-26T17:04:38.848Z,5.12
2019-06-26T17:08:25.232Z,5.35
2019-06-26T17:15:32.550Z,4.87
2019-06-26T17:19:03.630Z,4.83
2019-06-26T17:36:04.989Z,5.60
2019-06-26T17:43:50.350Z,6.20
2019-06-26T17:46:18.415Z,5.80
2019-06-26T17:49:59.637Z,5.93
2019-06-26T17:56:02.846Z,5.67
2019-06-26T18:06:40.525Z,6.30
2019-06-26T18:17:21.090Z,5.78
2019-06-26T18:20:35.291Z,6.10
2019-06-26T18:24:01.108Z,6.53
2019-06-26T18:30:05.194Z,6.95
2019-06-26T18:30:16.361Z,6.90
2019-06-26T18:33:44.854Z,6.25
2019-06-26T18:37:26.306Z,6.65
2019-06-26T18:40:43.230Z,6.67
2019-06-26T18:45:15.971Z,6.92
2019-06-26T18:50:47.625Z,7.25
2019-06-26T18:54:04.482Z,7.55
2019-06-26T18:57:46.835Z,7.65
2019-06-26T19:05:00.935Z,7.45
2019-06-26T19:11:39.230Z,8.18
2019-06-26T19:19:12.406Z,8.25
2019-06-26T19:22:39.730Z,8.95
2019-06-26T19:26:10.535Z,8.15
2019-06-26T19:29:27.929Z,8.53
2019-06-26T19:35:44.139Z,8.28
2019-06-26T19:38:44.406Z,8.83
2019-06-26T19:42:08.753Z,8.53
2019-06-26T19:45:21.154Z,9.00
2019-06-26T19:49:17.290Z,8.80
2019-06-26T19:52:33.189Z,9.28
2019-06-26T19:59:42.717Z,8.10
2019-06-26T20:03:05.574Z,8.53
2019-06-26T20:09:49.373Z,8.60
2019-06-26T20:13:30.113Z,7.72
2019-06-26T20:20:38.800Z,8.28
2019-06-26T20:31:52.136Z,7.60
2019-06-26T20:48:36.665Z,6.75
2019-06-26T20:52:04.524Z,7.17
2019-06-26T20:55:13.316Z,6.90
2019-06-26T21:01:37.880Z,6.35
2019-06-26T21:05:10.893Z,6.30
2019-06-26T21:11:06.343Z,6.37
2019-06-26T21:14:13.329Z,6.42
2019-06-26T21:29:53.673Z,7.15
2019-06-26T21:33:21.121Z,5.92
2019-06-26T21:44:45.819Z,6.60
2019-06-26T21:47:59.879Z,6.15
2019-06-26T22:08:00.591Z,6.30
2019-06-26T22:21:10.756Z,6.78
2019-06-26T22:24:44.034Z,7.15
2019-06-26T22:28:24.734Z,7.15
2019-06-26T22:31:36.028Z,6.70
2019-06-26T22:38:15.018Z,6.90
2019-06-26T22:41:33.701Z,6.70
2019-06-26T22:44:45.629Z,7.42
2019-06-26T22:54:38.847Z,7.40
2019-06-26T22:58:14.705Z,8.33
2019-06-26T23:04:33.743Z,6.55
2019-06-26T23:08:33.482Z,6.95
2019-06-26T23:12:00.369Z,7.00
2019-06-26T23:14:57.361Z,7.17
2019-06-26T23:18:11.558Z,7.42
2019-06-26T23:21:46.718Z,7.83
2019-06-26T23:25:24.913Z,7.58
2019-06-26T23:28:56.890Z,7.12
2019-06-26T23:35:55.403Z,7.12
2019-06-26T23:42:10.862Z,7.80
2019-06-26T23:45:51.427Z,7.40
2019-06-26T23:49:29.966Z,5.55
2019-06-26T23:52:39.365Z,7.08
2019-06-26T23:55:58.111Z,7.40
2019-06-26T23:59:23.255Z,6.60
